EDDTEDDH

Guest
Details From EDDT - Berlin Tegel
To EDDH - Hamburg
Flight Number -
Tags Generated
Created
Modified
Stats Distance 136 nm / 252 km
Max Altitude 0 ft / 0 m
Waypoints 2
Social Downloads 4
Likes 0
Share VATSIM

Download

Looking for another format? Having issues loading an existing format? Contact us
Advertisement - Login to hide

Notes

Generated

Route

EDDT EDDH

ID Type Via Altitude Latitude Longitude Leg Dist Tot Dist Heading (true) Name
O EDDT APT - 0 ft / 0 m 52.55668˚ 13.27499˚ - 0 nm - -
O EDDH APT - 0 ft / 0 m 53.65441˚ 9.97521˚ 135 nm 135 nm 300° / 298° -

Altitude Profile

Advertisement - Login to hide

EDDT

Details ICAO EDDT (TXL)
Name Berlin Tegel
Region Germany - Civil
Timezone Europe/Berlin (UTC+2.0)
Stats Elevation 122 ft / 37 m (AMSL)
Location 52.559100° 13.290188°
Runways 2
Magnetic Variation 3.811° E

METAR

EDDT 232120Z 04008KT 010V070 CAVOK 18/10 Q1023

Decode

TAF

TAF EDDT 231700Z 2318/2418 06007KT CAVOK TEMPO 2409/2415 08015G25KT

Decode

Departure Runways

ID Width Length Bearing (true) Bearing (mag) Surface Threshold Offset Overrun Length
08L 151 ft / 46 m 9,885 ft / 3,013 m 80.83° 77.02° Asphalt 0 ft / 0 m 226 ft / 69 m
08R 151 ft / 46 m 7,923 ft / 2,415 m 80.84° 77.03° Asphalt 341 ft / 104 m 207 ft / 63 m
26L 151 ft / 46 m 7,923 ft / 2,415 m 260.87° 257.06° Asphalt 722 ft / 220 m 157 ft / 48 m
26R 151 ft / 46 m 9,885 ft / 3,013 m 260.86° 257.05° Asphalt 0 ft / 0 m 223 ft / 68 m

EDDH

Details ICAO EDDH (HAM)
Name Hamburg
Region Germany - Civil
Timezone Europe/Berlin (UTC+2.0)
Stats Elevation 53 ft / 16 m (AMSL)
Location 53.633665° 9.985235°
Runways 2
Magnetic Variation 2.848° E

METAR

EDDH 232120Z 05006KT CAVOK 16/04 Q1025 NOSIG

Decode

TAF

TAF EDDH 231700Z 2318/2424 05013KT CAVOK BECMG 2318/2320 07008KT TEMPO 2410/2418 08015G25KT

Decode

Destination Runways

ID Width Length Bearing (true) Bearing (mag) Surface Threshold Offset Overrun Length
05 151 ft / 46 m 10,647 ft / 3,245 m 50.18° 47.33° Asphalt 978 ft / 298 m 194 ft / 59 m
15 151 ft / 46 m 12,013 ft / 3,662 m 152.89° 150.04° Asphalt 0 ft / 0 m 194 ft / 59 m
23 151 ft / 46 m 10,647 ft / 3,245 m 230.22° 227.37° Asphalt 509 ft / 155 m 240 ft / 73 m
33 151 ft / 46 m 12,013 ft / 3,662 m 332.91° 330.06° Asphalt 1,463 ft / 446 m 164 ft / 50 m

Approach Navaids

Runway Type Ident Frequency Range Bearing (true) Bearing (mag) Slope Elevation
05 Localiser IHHE 110.50 MHz 18 nm / 33 km 50.19° 47.35° - 45 ft / 14 m (AMSL)
05 Glidescope IHHE 110.50 MHz 10 nm / 19 km 50.20° 47.35° 3.00° 32 ft / 10 m (AMSL)
15 Localiser IHHS 111.35 MHz 18 nm / 33 km 152.89° 150.04° - 38 ft / 12 m (AMSL)
15 Glidescope IHHS 111.35 MHz 10 nm / 19 km 152.90° 150.05° 3.00° 53 ft / 16 m (AMSL)
23 Localiser IHHW 111.50 MHz 18 nm / 33 km 230.21° 227.36° - 36 ft / 11 m (AMSL)
23 Glidescope IHHW 111.50 MHz 10 nm / 19 km 230.20° 227.35° 3.00° 43 ft / 13 m (AMSL)
33 Localiser IHHN 109.90 MHz 18 nm / 33 km 332.88° 330.04° - 53 ft / 16 m (AMSL)

Popular Alternatives